Ewen, MI

9:42 AM EDT on May 25, 2015 (GMT -0400)
Ewen MI | | Change Station
CLOSE
Current Station
Personal Weather Station
Location: Ewen, MI
Elevation: 1181 ft
Nearby Weather Stations

Elev 1181 ft 46.52 °N, 89.27 °W | Updated 14 minutes ago

Rain
Rain
57.4 °F
Feels Like 57.4 °F
N
3.7
Wind Variable Wind from SSE

Today
High -- | Low -- °F
--% Chance of Precip.
Yesterday
High -- | Low -- °F
Precip. -- in
6:13 AM 9:36 PM
Waxing Crescent, 48% visible
Pressure 29.75 in
Visibility 2.5 miles
Clouds Overcast 200 ft
Dew Point 57 °F
Humidity 99%
Rainfall 1.16 in
Snow Depth Not available.
UV 1 out of 12
Pollen .90 out of 12
Air Quality Not available.
Flu Activity Sporadic
METAR KLNL 251315Z AUTO 13005KT 2 1/2SM BR OVC002 14/13 A2975 RMK AO2 T01350134

More Conditions Fewer Conditions

Pressure 29.75 in
Visibility 2.5 miles
Clouds Overcast 200 ft
Dew Point 57 °F
Humidity 99%
Rainfall 1.16 in
Snow Depth Not available.
UV 1 out of 12
Pollen .90 out of 12
Air Quality Not available.
Flu Activity Sporadic
METAR KLNL 251315Z AUTO 13005KT 2 1/2SM BR OVC002 14/13 A2975 RMK AO2 T01350134

More Conditions Fewer Conditions

10-Day Weather Forecast

Almanac

Astronomy

May. 25, 2015 Rise Set
Actual Time
Civil Twilight
Nautical Twilight
Astronomical Twilight
Moon
Length of Visible Light
Length of Day
Tomorrow will be .
, % of the Moon is Illuminated

Today's Extremes

State Highs State Lows

Community

WunderPhotos

Upload Photos

1,824,009 photos uploaded!

WunderBlogs® & News

Nearby

Air Quality

  Air Quality AQ Index Pollutant
Not available.

Snow Depth

Station Depth Elevation

Earthquake Activity

City Distance Mag. Time & Date
Minimum magnitude displayed is 2.5.

Coastal Water Temperatures

Place Temperature

Stations

Nearby Weather Stations

Station Location Temp. Windchill Dew Point Humidity Wind Precip. Elev Updated Type